Time;durP1;ratioP1;P1;durP2;ratioP2;P2;SDS_P1;SDS_P2;PMS_P1;PMS_P2;Temp;Humidity;BMP_temperature;BMP_pressure;BME280_temperature;BME280_humidity;BME280_pressure;Samples;Min_cycle;Max_cycle;Signal;HPM_P1;HPM_P2
2021/08/23 00:00:53;;;;;;;6.45;4.43;;;19.50;88.00;;;;;;5002669;28;20037;-54
2021/08/23 00:03:19;;;;;;;10.38;4.45;;;19.60;87.70;;;;;;5052569;28;20104;-53
2021/08/23 00:05:44;;;;;;;8.93;4.72;;;19.60;87.40;;;;;;5052748;28;20123;-52
2021/08/23 00:08:10;;;;;;;7.10;4.68;;;19.60;87.40;;;;;;5052313;28;20037;-53
2021/08/23 00:10:36;;;;;;;8.40;4.28;;;19.40;88.20;;;;;;5052402;28;20033;-54
2021/08/23 00:13:02;;;;;;;6.50;4.45;;;19.20;89.10;;;;;;5052431;28;20033;-52
2021/08/23 00:15:28;;;;;;;10.75;4.60;;;19.30;89.50;;;;;;5052124;28;20033;-52
2021/08/23 00:17:54;;;;;;;7.85;4.47;;;19.30;89.70;;;;;;5052239;28;20431;-53
2021/08/23 00:20:25;;;;;;;10.38;5.13;;;19.40;89.40;;;;;;4986012;28;20037;-53
2021/08/23 00:22:51;;;;;;;7.95;4.65;;;19.40;89.20;;;;;;5051984;28;20068;-53
2021/08/23 00:25:18;;;;;;;10.15;4.55;;;19.30;89.40;;;;;;5035135;28;20044;-53
2021/08/23 00:27:44;;;;;;;8.45;4.50;;;19.30;89.60;;;;;;5101620;28;20044;-53
2021/08/23 00:30:12;;;;;;;9.52;4.75;;;19.40;89.50;;;;;;5113626;28;20087;-53
2021/08/23 00:32:39;;;;;;;9.80;5.80;;;19.30;89.30;;;;;;5061894;28;20375;-52
2021/08/23 00:35:05;;;;;;;10.70;5.30;;;19.40;89.40;;;;;;5114751;28;20026;-52
2021/08/23 00:37:31;;;;;;;7.50;4.50;;;19.40;89.10;;;;;;5061934;28;20047;-53
2021/08/23 00:39:56;;;;;;;11.07;5.00;;;19.50;88.90;;;;;;5078748;28;20080;-53
2021/08/23 00:42:22;;;;;;;9.35;4.80;;;19.50;88.90;;;;;;5114858;28;20034;-53
2021/08/23 00:44:48;;;;;;;7.32;4.28;;;19.40;89.30;;;;;;5114456;28;20034;-53
2021/08/23 00:47:14;;;;;;;9.43;4.97;;;19.40;89.60;;;;;;5114594;28;20024;-53
2021/08/23 00:49:40;;;;;;;10.93;4.70;;;19.40;89.90;;;;;;5114875;28;20429;-54
2021/08/23 00:52:07;;;;;;;8.50;4.60;;;19.40;89.50;;;;;;5114391;28;20485;-52
2021/08/23 00:54:35;;;;;;;7.68;5.45;;;19.60;88.90;;;;;;5114578;28;20027;-53
2021/08/23 00:57:02;;;;;;;9.02;4.45;;;19.70;88.40;;;;;;5114614;28;20023;-53
2021/08/23 00:59:30;;;;;;;9.77;4.82;;;19.60;88.20;;;;;;5061751;28;20036;-53
2021/08/23 01:01:59;;;;;;;7.45;4.70;;;19.50;88.40;;;;;;5114585;28;20081;-53
2021/08/23 01:05:06;;;;;;;7.78;4.70;;;19.40;89.10;;;;;;5114741;28;20031;-53
2021/08/23 01:07:50;;;;;;;12.00;5.13;;;19.40;89.00;;;;;;5031434;28;20095;-53
2021/08/23 01:10:22;;;;;;;8.32;4.93;;;19.00;90.50;;;;;;5031624;28;20029;-54
2021/08/23 01:12:48;;;;;;;8.93;5.20;;;;;;;;;;5031756;28;20041;-53
2021/08/23 01:15:14;;;;;;;8.15;5.25;;;18.70;91.40;;;;;;5014657;28;20579;-53
2021/08/23 01:17:41;;;;;;;9.32;4.45;;;18.80;91.50;;;;;;5031516;28;20116;-53
2021/08/23 01:20:08;;;;;;;5.68;4.65;;;18.70;91.40;;;;;;5031302;28;20072;-53
2021/08/23 01:22:44;;;;;;;11.65;4.97;;;18.80;91.40;;;;;;5014686;28;20109;-53
2021/08/23 01:25:13;;;;;;;5.60;4.72;;;19.00;91.10;;;;;;5031424;28;20079;-54
2021/08/23 01:27:45;;;;;;;7.68;5.43;;;19.20;90.60;;;;;;5031446;28;20044;-54
2021/08/23 01:30:12;;;;;;;11.03;5.43;;;19.30;90.40;;;;;;5031409;28;20033;-52
2021/08/23 01:32:40;;;;;;;8.65;5.55;;;19.40;90.30;;;;;;5031508;28;20365;-54
2021/08/23 01:35:07;;;;;;;6.28;4.65;;;19.30;90.50;;;;;;4998133;28;20051;-53
2021/08/23 01:37:35;;;;;;;10.98;5.65;;;19.20;90.70;;;;;;4997436;28;20104;-53
2021/08/23 01:40:02;;;;;;;9.07;4.85;;;19.20;90.70;;;;;;5026360;28;20459;-52
2021/08/23 01:42:30;;;;;;;9.52;5.60;;;19.30;90.80;;;;;;5031273;28;20048;-53
2021/08/23 01:44:56;;;;;;;8.13;5.68;;;19.40;90.80;;;;;;5095355;28;20043;-53
2021/08/23 01:47:21;;;;;;;8.27;5.68;;;19.40;90.50;;;;;;5113836;28;20027;-53
2021/08/23 01:49:47;;;;;;;12.23;6.55;;;19.30;90.40;;;;;;5113894;28;20102;-53
2021/08/23 01:52:13;;;;;;;10.68;5.65;;;19.50;90.20;;;;;;5077919;28;20035;-54
2021/08/23 01:54:42;;;;;;;11.20;7.00;;;19.50;90.20;;;;;;5113979;28;20443;-54
2021/08/23 01:57:09;;;;;;;12.95;6.38;;;19.50;90.20;;;;;;5113793;28;20073;-53
2021/08/23 01:59:35;;;;;;;13.90;5.90;;;19.30;90.10;;;;;;5113800;28;20035;-53
2021/08/23 02:02:01;;;;;;;9.23;5.80;;;19.20;90.70;;;;;;5061245;28;20035;-53
2021/08/23 02:04:27;;;;;;;8.07;5.85;;;19.30;90.60;;;;;;5011155;28;20136;-54
2021/08/23 02:06:55;;;;;;;11.70;5.90;;;19.40;90.30;;;;;;5060991;28;20044;-53
2021/08/23 02:09:21;;;;;;;8.00;6.03;;;18.90;91.00;;;;;;5113929;28;20038;-53
2021/08/23 02:11:46;;;;;;;8.68;5.43;;;18.50;91.80;;;;;;5060801;28;20039;-53
2021/08/23 02:14:12;;;;;;;8.73;5.00;;;18.40;92.30;;;;;;5061075;28;20038;-54
2021/08/23 02:16:40;;;;;;;12.30;5.88;;;18.30;92.60;;;;;;5113330;28;20344;-53
2021/08/23 02:19:07;;;;;;;7.15;4.97;;;18.40;92.80;;;;;;5078813;28;20044;-53
2021/08/23 02:21:50;;;;;;;10.27;5.15;;;18.60;92.40;;;;;;5060883;28;20122;-53
2021/08/23 02:24:16;;;;;;;7.32;4.85;;;;;;;;;;5113674;28;20027;-53
2021/08/23 02:26:42;;;;;;;8.30;5.72;;;19.10;91.20;;;;;;5113547;28;20024;-54
2021/08/23 02:29:08;;;;;;;7.13;5.20;;;19.10;91.20;;;;;;5113470;28;20096;-53
2021/08/23 02:31:33;;;;;;;18.80;5.90;;;19.20;90.90;;;;;;5060832;28;20471;-52
2021/08/23 02:33:59;;;;;;;10.63;6.20;;;19.10;91.00;;;;;;5113648;28;20024;-54
2021/08/23 02:36:25;;;;;;;8.45;5.60;;;19.20;90.80;;;;;;5060575;28;20123;-52
2021/08/23 02:38:51;;;;;;;9.93;5.32;;;19.10;90.80;;;;;;5111836;28;20071;-53
2021/08/23 02:41:16;;;;;;;7.78;5.05;;;19.00;91.10;;;;;;5113365;28;20067;-53
2021/08/23 02:43:42;;;;;;;7.55;5.70;;;18.80;91.50;;;;;;5113141;28;20134;-53
2021/08/23 02:46:08;;;;;;;10.27;5.85;;;18.80;91.50;;;;;;5113255;28;20053;-53
2021/08/23 02:48:34;;;;;;;12.57;6.07;;;18.70;91.70;;;;;;5060722;28;20054;-54
2021/08/23 02:50:59;;;;;;;10.00;5.43;;;18.60;92.00;;;;;;5113556;28;20076;-53
2021/08/23 02:53:25;;;;;;;5.70;5.10;;;18.60;92.00;;;;;;5064031;28;20092;-53
2021/08/23 02:55:51;;;;;;;7.35;5.18;;;18.70;91.80;;;;;;5116782;28;20043;-52
2021/08/23 02:58:17;;;;;;;8.57;6.57;;;18.60;92.00;;;;;;5116876;28;20032;-53
2021/08/23 03:00:43;;;;;;;7.35;5.07;;;18.50;92.30;;;;;;5079268;28;20043;-53
2021/08/23 03:03:08;;;;;;;8.65;5.03;;;18.70;92.00;;;;;;5116722;28;20023;-53
2021/08/23 03:05:34;;;;;;;9.20;5.60;;;18.70;91.90;;;;;;5080653;28;20504;-53
2021/08/23 03:08:00;;;;;;;7.78;5.85;;;18.70;92.00;;;;;;5097502;28;20047;-53
2021/08/23 03:10:26;;;;;;;10.45;6.00;;;18.80;91.80;;;;;;5116839;28;20038;-53
2021/08/23 03:12:52;;;;;;;9.23;5.47;;;18.70;91.80;;;;;;5116412;28;20124;-55
2021/08/23 03:15:19;;;;;;;6.90;5.82;;;18.90;91.50;;;;;;5116561;28;20107;-52
2021/08/23 03:17:45;;;;;;;10.13;6.00;;;18.90;91.30;;;;;;5116602;28;20058;-53
2021/08/23 03:20:11;;;;;;;8.45;5.60;;;18.80;91.60;;;;;;5116327;28;20035;-53
2021/08/23 03:22:37;;;;;;;9.32;5.60;;;18.70;91.80;;;;;;5080252;28;20475;-53
2021/08/23 03:25:03;;;;;;;7.55;5.20;;;18.60;92.10;;;;;;5116112;28;20039;-53
2021/08/23 03:27:29;;;;;;;10.18;6.03;;;18.40;92.30;;;;;;5080412;28;20047;-54
2021/08/23 03:29:55;;;;;;;11.50;6.43;;;18.30;92.70;;;;;;5116067;28;20123;-53
2021/08/23 03:32:20;;;;;;;9.05;5.97;;;18.20;93.30;;;;;;5116269;28;20036;-52
2021/08/23 03:34:47;;;;;;;8.30;6.30;;;18.30;93.00;;;;;;5096785;28;20464;-55
2021/08/23 03:37:12;;;;;;;6.60;5.85;;;18.40;93.00;;;;;;5072736;28;20512;-53
2021/08/23 03:39:38;;;;;;;9.73;6.07;;;18.60;92.60;;;;;;5072978;28;20075;-53
2021/08/23 03:42:04;;;;;;;8.40;6.10;;;18.50;92.70;;;;;;5006347;28;20044;-52
2021/08/23 03:44:30;;;;;;;10.93;5.40;;;18.60;92.50;;;;;;5073001;28;20108;-52
2021/08/23 03:46:55;;;;;;;7.47;6.10;;;18.60;92.40;;;;;;5056130;28;20513;-52
2021/08/23 03:49:21;;;;;;;10.18;5.85;;;18.40;92.60;;;;;;5072985;28;20193;-53
2021/08/23 03:51:47;;;;;;;7.47;5.82;;;18.00;93.30;;;;;;5072643;28;20547;-53
2021/08/23 03:54:14;;;;;;;9.32;6.22;;;17.80;94.10;;;;;;5072862;28;20510;-52
2021/08/23 03:56:39;;;;;;;9.23;6.15;;;17.60;94.70;;;;;;5072760;28;20480;-54
2021/08/23 03:59:05;;;;;;;8.20;5.75;;;17.50;95.10;;;;;;5072469;28;20174;-53
2021/08/23 04:01:31;;;;;;;9.13;5.68;;;17.60;95.10;;;;;;5072642;28;20558;-53
2021/08/23 04:03:57;;;;;;;11.10;6.22;;;17.50;95.30;;;;;;5071333;28;20036;-53
2021/08/23 04:06:23;;;;;;;7.15;5.97;;;17.60;95.30;;;;;;5072269;28;20033;-53
2021/08/23 04:08:50;;;;;;;9.95;6.25;;;17.80;95.00;;;;;;5103682;28;20062;-53
2021/08/23 04:11:16;;;;;;;9.15;5.57;;;18.00;94.60;;;;;;5115153;28;20065;-53
2021/08/23 04:13:42;;;;;;;9.18;5.88;;;18.20;94.20;;;;;;5115038;28;20096;-55
2021/08/23 04:16:18;;;;;;;8.63;5.80;;;18.40;95.50;;;;;;5115091;28;20128;-53
2021/08/23 04:18:44;;;;;;;8.75;5.72;;;18.50;99.90;;;;;;5072246;28;20138;-52
2021/08/23 04:21:10;;;;;;;9.10;5.95;;;18.40;99.90;;;;;;5072138;28;20032;-52
2021/08/23 04:23:36;;;;;;;7.18;5.43;;;18.20;98.80;;;;;;5071020;28;20086;-52
2021/08/23 04:26:02;;;;;;;9.93;6.05;;;18.20;98.60;;;;;;5071977;28;20649;-53
2021/08/23 04:28:28;;;;;;;7.18;5.20;;;18.60;98.10;;;;;;5071974;28;20342;-52
2021/08/23 04:30:54;;;;;;;11.80;5.60;;;18.50;93.40;;;;;;5071931;28;20120;-53
2021/08/23 04:33:21;;;;;;;6.90;5.45;;;18.60;93.00;;;;;;5030886;28;20095;-54
2021/08/23 04:35:47;;;;;;;9.50;5.85;;;18.70;92.80;;;;;;5031694;28;20041;-53
2021/08/23 04:38:13;;;;;;;12.02;7.07;;;19.00;93.70;;;;;;5030238;28;20068;-53
2021/08/23 04:40:39;;;;;;;14.38;7.35;;;19.00;97.60;;;;;;5012249;28;20410;-52
2021/08/23 04:43:05;;;;;;;14.13;7.53;;;18.80;95.80;;;;;;4998893;28;20443;-52
2021/08/23 04:45:31;;;;;;;13.52;7.35;;;18.90;95.50;;;;;;5012057;28;20042;-54
2021/08/23 04:47:57;;;;;;;10.65;7.20;;;19.20;95.60;;;;;;5027175;28;20042;-53
2021/08/23 04:50:22;;;;;;;13.50;7.60;;;19.10;95.70;;;;;;5031604;28;20049;-53
2021/08/23 04:52:48;;;;;;;11.93;7.05;;;19.20;95.80;;;;;;5027718;28;20084;-53
2021/08/23 04:55:14;;;;;;;11.95;7.35;;;18.90;92.70;;;;;;5017033;28;20092;-53
2021/08/23 04:57:40;;;;;;;10.68;7.43;;;19.00;92.80;;;;;;5051336;28;20544;-53
2021/08/23 05:00:11;;;;;;;11.75;6.80;;;19.30;96.10;;;;;;5037731;28;20170;-54
2021/08/23 05:02:37;;;;;;;15.85;7.35;;;19.20;93.50;;;;;;5021289;28;20468;-54
2021/08/23 05:05:04;;;;;;;13.52;7.15;;;19.20;93.30;;;;;;5082763;28;20051;-52
2021/08/23 05:07:30;;;;;;;15.48;6.80;;;19.30;94.20;;;;;;5061404;28;20354;-54
2021/08/23 05:09:55;;;;;;;14.95;6.85;;;19.40;92.40;;;;;;5113755;28;20032;-52
2021/08/23 05:12:21;;;;;;;9.77;6.38;;;19.60;93.40;;;;;;5113409;28;20134;-53
2021/08/23 05:14:47;;;;;;;12.43;6.10;;;19.60;92.30;;;;;;5059323;28;20036;-53
2021/08/23 05:17:13;;;;;;;8.15;5.93;;;19.80;93.30;;;;;;5043223;28;20054;-52
2021/08/23 05:19:39;;;;;;;9.80;5.70;;;20.00;93.30;;;;;;5112885;28;20024;-52
2021/08/23 05:22:04;;;;;;;11.43;5.45;;;19.80;91.40;;;;;;5113301;28;20027;-52
2021/08/23 05:24:30;;;;;;;11.95;5.72;;;19.80;91.10;;;;;;5112674;28;20028;-54
2021/08/23 05:26:56;;;;;;;15.00;6.43;;;19.90;91.20;;;;;;5111332;28;20470;-54
2021/08/23 05:29:22;;;;;;;11.65;5.63;;;20.00;91.30;;;;;;5112997;28;20032;-53
2021/08/23 05:31:47;;;;;;;10.20;5.18;;;20.30;91.20;;;;;;5113266;28;20429;-54
2021/08/23 05:34:13;;;;;;;14.15;5.63;;;20.30;90.00;;;;;;5060693;28;20482;-52
2021/08/23 05:36:39;;;;;;;7.63;5.18;;;20.40;90.40;;;;;;5113712;28;20452;-49
2021/08/23 05:39:05;;;;;;;9.57;6.35;;;20.50;90.20;;;;;;5061346;28;20505;-53
2021/08/23 05:41:33;;;;;;;9.88;6.30;;;20.60;90.30;;;;;;5112684;28;20031;-53
2021/08/23 05:43:58;;;;;;;9.18;5.40;;;20.60;90.00;;;;;;5113297;28;20032;-52
2021/08/23 05:46:24;;;;;;;11.43;5.53;;;20.60;90.20;;;;;;5113545;28;20032;-53
2021/08/23 05:48:50;;;;;;;9.15;5.57;;;20.80;89.70;;;;;;5113589;28;20035;-53
2021/08/23 05:51:17;;;;;;;10.63;6.00;;;20.90;89.10;;;;;;5113880;28;20066;-52
2021/08/23 05:53:45;;;;;;;14.48;7.82;;;21.10;88.40;;;;;;5113487;28;20024;-52
2021/08/23 05:56:11;;;;;;;7.72;6.03;;;21.40;86.20;;;;;;5113000;28;20447;-54
2021/08/23 05:58:37;;;;;;;8.73;6.05;;;21.30;87.00;;;;;;5112690;28;20023;-53
2021/08/23 06:01:05;;;;;;;6.65;5.43;;;21.40;86.40;;;;;;5112539;28;20043;-53
2021/08/23 06:03:32;;;;;;;8.70;5.40;;;21.70;86.40;;;;;;5110190;28;20030;-54
2021/08/23 06:06:03;;;;;;;6.93;5.00;;;21.80;85.50;;;;;;5076989;28;20491;-53
2021/08/23 06:08:29;;;;;;;9.23;5.27;;;22.00;84.40;;;;;;5113067;28;20028;-53
2021/08/23 06:10:55;;;;;;;9.80;5.10;;;22.30;84.40;;;;;;5076965;28;20608;-53
2021/08/23 06:13:21;;;;;;;9.60;5.35;;;22.30;82.90;;;;;;5113212;28;20019;-52
2021/08/23 06:15:47;;;;;;;8.73;6.00;;;22.40;82.60;;;;;;5060363;28;20661;-53
2021/08/23 06:18:13;;;;;;;7.78;4.50;;;22.50;82.50;;;;;;5108067;28;20478;-52
2021/08/23 06:20:39;;;;;;;6.45;4.50;;;22.60;81.80;;;;;;5094394;28;20068;-53
2021/08/23 06:23:05;;;;;;;8.75;5.10;;;22.70;80.00;;;;;;5112742;28;20074;-53
2021/08/23 06:25:31;;;;;;;8.13;4.32;;;22.90;79.70;;;;;;5112688;28;20562;-52
2021/08/23 06:27:56;;;;;;;9.80;4.97;;;23.10;78.20;;;;;;5079752;28;20101;-53
2021/08/23 06:30:22;;;;;;;27.63;7.13;;;23.20;79.40;;;;;;5117072;28;20489;-52
2021/08/23 06:32:48;;;;;;;17.80;5.88;;;23.50;78.80;;;;;;5079435;28;20048;-53
2021/08/23 06:35:13;;;;;;;13.65;4.75;;;23.80;77.80;;;;;;5114461;28;20023;-53
2021/08/23 06:37:41;;;;;;;7.68;4.50;;;24.00;76.70;;;;;;5115602;28;20040;-52
2021/08/23 06:40:08;;;;;;;12.55;4.40;;;24.30;75.90;;;;;;5115523;28;20059;-53
2021/08/23 06:42:38;;;;;;;7.72;4.35;;;24.20;74.10;;;;;;5112483;28;20538;-57
2021/08/23 06:45:05;;;;;;;29.05;8.27;;;24.30;73.80;;;;;;5101724;28;20039;-51
2021/08/23 06:47:31;;;;;;;13.48;5.13;;;24.40;73.20;;;;;;5115753;28;20169;-52
2021/08/23 06:49:57;;;;;;;5.90;3.22;;;24.40;73.40;;;;;;5080088;28;20467;-50
2021/08/23 06:52:22;;;;;;;7.45;3.67;;;24.50;72.40;;;;;;5063214;28;20120;-52
2021/08/23 06:54:48;;;;;;;8.38;3.53;;;;;;;;;;5079270;28;20055;-50
2021/08/23 06:57:15;;;;;;;9.43;4.65;;;;;;;;;;5114592;28;20070;-50
2021/08/23 06:59:40;;;;;;;10.32;4.22;;;25.10;71.70;;;;;;5116158;28;20024;-50
2021/08/23 07:02:06;;;;;;;7.15;3.35;;;25.50;77.10;;;;;;5115454;28;20054;-50
2021/08/23 07:04:32;;;;;;;5.38;3.17;;;25.60;76.50;;;;;;5116257;28;20028;-50
2021/08/23 07:06:58;;;;;;;5.60;3.53;;;;;;;;;;5114982;28;20375;-51
2021/08/23 07:09:25;;;;;;;6.95;4.38;;;;;;;;;;5070209;28;20041;-51
2021/08/23 07:11:51;;;;;;;8.07;3.53;;;26.10;92.20;;;;;;5072799;28;20194;-50
2021/08/23 07:30:29;;;;;;;9.23;4.07;;;;;;;;;;5049562;28;20780;-52
2021/08/23 07:32:56;;;;;;;9.23;3.80;;;;;;;;;;5044934;28;20029;-51
2021/08/23 07:35:22;;;;;;;7.50;3.78;;;;;;;;;;5043169;28;20457;-51
2021/08/23 07:37:48;;;;;;;6.75;4.45;;;;;;;;;;5037666;28;20032;-51
2021/08/23 07:40:15;;;;;;;10.45;5.53;;;;;;;;;;5038147;28;20057;-52
2021/08/23 07:42:42;;;;;;;13.93;6.70;;;;;;;;;;5040008;28;20029;-51
2021/08/23 07:45:08;;;;;;;11.50;6.32;;;;;;;;;;5041310;28;20026;-52
2021/08/23 07:47:35;;;;;;;12.02;6.50;;;;;;;;;;5042998;28;20033;-51
2021/08/23 07:50:01;;;;;;;14.23;6.95;;;;;;;;;;5045011;28;20026;-52
2021/08/23 07:52:27;;;;;;;12.55;6.43;;;29.10;83.20;;;;;;5047662;28;20029;-52
2021/08/23 07:54:53;;;;;;;14.80;6.60;;;29.00;75.50;;;;;;5048936;28;20060;-51
2021/08/23 07:57:19;;;;;;;6.03;4.32;;;28.90;76.50;;;;;;5048288;28;20112;-53
2021/08/23 07:59:44;;;;;;;9.30;5.00;;;28.80;76.80;;;;;;5049625;28;20037;-51
2021/08/23 08:02:10;;;;;;;9.30;4.40;;;28.90;77.70;;;;;;5048949;28;20072;-52
2021/08/23 08:04:36;;;;;;;8.25;4.00;;;29.00;77.60;;;;;;5048922;28;20065;-53
2021/08/23 08:07:02;;;;;;;5.63;4.30;;;29.00;87.40;;;;;;5030860;28;20535;-51
2021/08/23 08:09:28;;;;;;;10.38;4.65;;;29.00;83.40;;;;;;5049550;28;20172;-51
2021/08/23 08:11:54;;;;;;;6.47;4.00;;;29.00;71.80;;;;;;5013833;28;20196;-52
2021/08/23 08:14:20;;;;;;;11.80;4.65;;;28.90;71.00;;;;;;5047281;28;20457;-51
2021/08/23 08:16:45;;;;;;;8.38;4.60;;;29.00;66.70;;;;;;5043900;28;20029;-52
2021/08/23 08:19:11;;;;;;;7.07;4.10;;;29.00;69.80;;;;;;5025148;28;20056;-54
2021/08/23 08:21:37;;;;;;;10.38;4.35;;;;;;;;;;5018811;28;20033;-52
2021/08/23 08:24:03;;;;;;;6.57;4.00;;;;;;;;;;5045424;28;20033;-51
2021/08/23 08:26:29;;;;;;;8.98;4.60;;;;;;;;;;5043155;28;20144;-51
2021/08/23 08:28:56;;;;;;;7.63;4.65;;;;;;;;;;5044113;28;20046;-51
2021/08/23 08:31:22;;;;;;;9.73;4.78;;;;;;;;;;5006563;28;20072;-52
2021/08/23 08:33:48;;;;;;;7.68;4.13;;;;;;;;;;5014347;28;20091;-51
2021/08/23 08:36:14;;;;;;;5.70;3.50;;;29.80;89.50;;;;;;5025147;28;20127;-51
2021/08/23 08:38:41;;;;;;;5.88;3.97;;;;;;;;;;5035234;28;20045;-51
2021/08/23 08:41:07;;;;;;;9.60;3.97;;;;;;;;;;5011437;28;20045;-51
2021/08/23 08:43:33;;;;;;;8.05;4.45;;;29.90;59.80;;;;;;5035690;28;20033;-51
2021/08/23 08:45:59;;;;;;;11.90;5.13;;;30.10;60.30;;;;;;4971215;28;20053;-51
2021/08/23 08:48:25;;;;;;;9.70;4.60;;;30.40;60.20;;;;;;4986618;28;20042;-51
2021/08/23 08:50:51;;;;;;;13.05;6.68;;;30.40;60.50;;;;;;5011173;28;20077;-52
2021/08/23 08:53:18;;;;;;;8.52;4.40;;;30.60;60.50;;;;;;4973975;28;20077;-51
2021/08/23 08:55:44;;;;;;;11.68;4.60;;;30.90;60.90;;;;;;5007055;28;20096;-53
2021/08/23 08:58:12;;;;;;;6.90;3.83;;;31.00;59.70;;;;;;5003984;28;20069;-51
2021/08/23 09:00:40;;;;;;;13.10;5.07;;;31.00;59.50;;;;;;5004760;28;20050;-51
2021/08/23 09:03:07;;;;;;;14.43;4.70;;;31.10;59.30;;;;;;5008583;28;20084;-52
2021/08/23 09:05:51;;;;;;;13.10;4.90;;;31.00;60.10;;;;;;5007490;28;20105;-51
2021/08/23 09:08:27;;;;;;;8.23;4.30;;;31.00;60.30;;;;;;5007063;28;20034;-52
2021/08/23 09:10:53;;;;;;;7.75;4.00;;;31.30;59.20;;;;;;5004388;28;20044;-52
2021/08/23 09:13:18;;;;;;;8.35;4.28;;;31.10;58.00;;;;;;4977918;28;20373;-51
2021/08/23 09:15:55;;;;;;;10.13;4.80;;;31.40;57.50;;;;;;5003249;28;20060;-52
2021/08/23 09:18:23;;;;;;;7.28;4.30;;;31.50;57.40;;;;;;5028676;28;20088;-52
2021/08/23 09:20:58;;;;;;;7.35;4.40;;;31.50;57.50;;;;;;4995740;28;20033;-51
2021/08/23 09:23:32;;;;;;;14.85;5.47;;;31.60;82.90;;;;;;5029762;28;20527;-51
2021/08/23 09:26:12;;;;;;;10.73;5.32;;;31.60;57.20;;;;;;4999030;28;20124;-51
2021/08/23 09:28:40;;;;;;;10.30;5.60;;;31.40;55.70;;;;;;5029240;28;20492;-51
2021/08/23 09:31:10;;;;;;;10.85;5.90;;;31.70;56.60;;;;;;5032981;28;20029;-51
2021/08/23 09:33:45;;;;;;;10.00;5.03;;;31.70;56.30;;;;;;5030917;28;20052;-51
2021/08/23 09:36:17;;;;;;;12.25;5.55;;;31.60;56.20;;;;;;5031368;28;20710;-51
2021/08/23 09:38:43;;;;;;;14.10;5.45;;;31.70;55.90;;;;;;5027670;28;20135;-51
2021/08/23 09:41:10;;;;;;;10.73;5.53;;;31.60;56.10;;;;;;5012320;28;20573;-51
2021/08/23 09:43:36;;;;;;;10.48;4.95;;;31.70;56.20;;;;;;5033365;28;20483;-51
2021/08/23 09:46:11;;;;;;;8.70;4.72;;;31.60;55.80;;;;;;5032877;28;20038;-51
2021/08/23 09:48:49;;;;;;;5.03;4.28;;;31.70;55.20;;;;;;5027732;28;20147;-51
2021/08/23 09:51:27;;;;;;;7.25;4.43;;;31.50;55.40;;;;;;5027607;28;20094;-51
2021/08/23 09:54:04;;;;;;;8.48;4.32;;;31.40;56.30;;;;;;5021273;28;20030;-50
2021/08/23 09:56:33;;;;;;;10.57;4.47;;;31.50;55.50;;;;;;5033098;28;20548;-51
2021/08/23 09:59:00;;;;;;;8.55;4.55;;;31.70;55.90;;;;;;5026648;28;20046;-51
2021/08/23 10:01:26;;;;;;;10.70;5.30;;;31.80;54.90;;;;;;5031469;28;20034;-51
2021/08/23 10:03:53;;;;;;;8.90;4.95;;;32.00;55.30;;;;;;4982149;28;20121;-51
2021/08/23 10:06:19;;;;;;;10.18;4.60;;;32.20;55.10;;;;;;5027447;28;20034;-51
2021/08/23 10:08:46;;;;;;;9.52;4.90;;;32.10;55.90;;;;;;5030222;28;20044;-51
2021/08/23 10:11:15;;;;;;;5.65;4.90;;;31.90;55.50;;;;;;5028323;28;20033;-50
2021/08/23 10:13:41;;;;;;;10.73;5.28;;;32.10;54.90;;;;;;5029764;28;20053;-50
2021/08/23 10:16:08;;;;;;;10.88;5.70;;;32.10;55.90;;;;;;5029473;28;20041;-51
2021/08/23 10:18:33;;;;;;;8.18;4.38;;;32.30;55.60;;;;;;5028435;28;20477;-50
2021/08/23 10:20:59;;;;;;;10.18;4.57;;;32.30;54.50;;;;;;5018535;28;20081;-50
2021/08/23 10:23:26;;;;;;;6.13;3.97;;;32.30;54.40;;;;;;5014581;28;20100;-50
2021/08/23 10:25:52;;;;;;;6.40;4.50;;;32.30;53.10;;;;;;5014147;28;20034;-50
2021/08/23 10:28:19;;;;;;;10.27;5.15;;;32.30;55.40;;;;;;4978946;28;20125;-51
2021/08/23 10:30:45;;;;;;;10.65;4.65;;;32.20;56.40;;;;;;4978605;28;20057;-50
2021/08/23 10:33:11;;;;;;;9.90;5.20;;;32.50;57.00;;;;;;4994651;28;20042;-50
2021/08/23 10:35:46;;;;;;;6.88;4.75;;;32.60;57.00;;;;;;5013132;28;20037;-50
2021/08/23 10:38:22;;;;;;;6.60;4.75;;;32.30;56.90;;;;;;4994503;28;20084;-51
2021/08/23 10:40:49;;;;;;;7.95;4.78;;;;;;;;;;5013156;28;20026;-51
2021/08/23 10:43:27;;;;;;;9.80;4.47;;;;;;;;;;5012997;28;20045;-51
2021/08/23 10:45:53;;;;;;;5.90;4.40;;;32.90;90.30;;;;;;5012967;28;20034;-52
2021/08/23 10:48:20;;;;;;;6.13;4.63;;;;;;;;;;5012957;28;20036;-50
2021/08/23 11:04:08;;;;;;;7.47;4.60;;;32.70;55.50;;;;;;4666336;27;11715204;-49
2021/08/23 11:06:35;;;;;;;12.77;4.53;;;33.00;56.90;;;;;;5063231;28;20039;-50
2021/08/23 11:09:12;;;;;;;6.78;3.83;;;32.90;55.80;;;;;;5065265;28;20028;-50
2021/08/23 11:11:40;;;;;;;7.15;4.47;;;32.80;54.70;;;;;;5030387;28;20044;-50
2021/08/23 11:14:21;;;;;;;7.68;4.82;;;32.80;56.30;;;;;;5042459;28;20071;-50
2021/08/23 11:16:52;;;;;;;7.15;5.40;;;33.00;58.20;;;;;;5013737;28;20037;-53
2021/08/23 11:19:27;;;;;;;7.65;4.43;;;33.20;58.50;;;;;;5064812;28;20380;-52
2021/08/23 11:21:59;;;;;;;10.25;5.38;;;32.80;57.90;;;;;;5042391;28;20057;-51
2021/08/23 11:24:29;;;;;;;7.65;4.32;;;32.60;59.00;;;;;;5041319;28;20044;-51
2021/08/23 11:27:00;;;;;;;8.98;4.90;;;32.60;58.60;;;;;;5043205;28;20037;-49
2021/08/23 11:29:32;;;;;;;11.60;4.68;;;32.80;59.50;;;;;;5009494;28;20045;-50
2021/08/23 11:32:04;;;;;;;9.10;5.00;;;33.00;59.30;;;;;;5007147;28;20048;-52
2021/08/23 11:34:30;;;;;;;7.55;4.68;;;32.80;59.70;;;;;;5003399;28;20045;-51
2021/08/23 11:37:10;;;;;;;7.50;4.63;;;33.20;59.40;;;;;;4992377;28;20035;-52
2021/08/23 11:39:36;;;;;;;7.82;5.05;;;33.30;59.10;;;;;;5028446;28;20415;-51
2021/08/23 11:42:06;;;;;;;8.20;4.30;;;33.50;58.70;;;;;;5041571;28;20040;-51
2021/08/23 11:44:32;;;;;;;7.65;4.25;;;33.40;58.40;;;;;;5002701;28;20083;-52
2021/08/23 11:47:04;;;;;;;7.05;4.18;;;32.90;58.30;;;;;;4991409;28;20455;-51
2021/08/23 11:49:34;;;;;;;6.15;4.65;;;33.00;58.60;;;;;;5040089;28;20031;-51
2021/08/23 11:52:14;;;;;;;10.63;4.10;;;32.90;58.70;;;;;;5048711;28;20430;-50
2021/08/23 11:54:51;;;;;;;12.00;4.88;;;32.80;59.00;;;;;;5057743;28;20033;-52
2021/08/23 11:57:18;;;;;;;6.22;4.50;;;33.00;58.60;;;;;;5057693;28;20037;-50
2021/08/23 11:59:58;;;;;;;9.57;4.45;;;32.90;58.60;;;;;;5059976;28;20503;-47
2021/08/23 12:02:31;;;;;;;10.25;4.53;;;33.20;58.40;;;;;;5013994;28;20472;-53
2021/08/23 12:05:14;;;;;;;12.68;5.25;;;33.50;58.20;;;;;;5048008;28;20098;-51
2021/08/23 12:07:59;;;;;;;5.53;3.67;;;33.40;58.50;;;;;;4968805;28;20144;-53
2021/08/23 12:10:36;;;;;;;8.45;4.70;;;33.70;58.30;;;;;;5048352;28;20033;-53
2021/08/23 12:13:17;;;;;;;6.00;3.67;;;33.90;59.30;;;;;;5031683;28;20053;-57
2021/08/23 12:15:59;;;;;;;9.43;4.75;;;33.40;58.70;;;;;;5052296;28;20384;-54
2021/08/23 12:18:30;;;;;;;10.23;4.55;;;33.50;59.70;;;;;;5035148;28;20059;-54
2021/08/23 12:21:03;;;;;;;;;;;33.50;58.50;;;;;;5016386;28;20488;-60
2021/08/23 12:23:29;;;;;;;7.85;6.07;;;33.50;59.00;;;;;;5050759;28;20384;-60
2021/08/23 12:26:07;;;;;;;7.15;4.10;;;33.40;58.10;;;;;;5034947;28;20044;-60
2021/08/23 12:28:33;;;;;;;6.88;3.60;;;33.30;58.10;;;;;;5043889;28;20484;-59
2021/08/23 12:31:05;;;;;;;7.72;4.05;;;33.40;58.20;;;;;;5047333;28;20048;-60
2021/08/23 12:33:31;;;;;;;9.50;3.95;;;33.00;58.20;;;;;;5049637;28;20088;-60
2021/08/23 12:35:57;;;;;;;6.03;3.95;;;33.30;58.10;;;;;;5042976;28;20080;-59
2021/08/23 12:38:23;;;;;;;6.55;3.60;;;33.00;58.20;;;;;;5044980;28;20116;-60
2021/08/23 12:40:49;;;;;;;7.20;3.70;;;33.00;58.60;;;;;;5025756;28;20068;-59
2021/08/23 12:43:15;;;;;;;10.95;3.45;;;33.40;58.40;;;;;;5035618;28;20064;-60
2021/08/23 12:45:41;;;;;;;8.23;3.67;;;33.40;58.60;;;;;;5047955;28;20068;-60
2021/08/23 12:48:07;;;;;;;6.13;4.15;;;33.80;57.80;;;;;;5052009;28;20553;-60
2021/08/23 12:50:33;;;;;;;9.95;3.65;;;33.50;58.10;;;;;;5031848;28;20373;-60
2021/08/23 12:52:58;;;;;;;6.20;3.85;;;33.80;57.90;;;;;;5047273;28;20491;-60
2021/08/23 12:55:24;;;;;;;7.07;3.83;;;34.10;57.20;;;;;;5038227;28;20349;-60
2021/08/23 12:57:50;;;;;;;5.40;3.92;;;33.90;57.40;;;;;;5041995;28;20112;-60
2021/08/23 13:00:16;;;;;;;6.00;3.70;;;33.80;57.40;;;;;;5046787;28;20543;-60
2021/08/23 13:02:41;;;;;;;5.80;4.07;;;34.00;57.00;;;;;;5021844;28;20037;-60
2021/08/23 13:05:09;;;;;;;7.70;4.10;;;34.20;58.20;;;;;;5017450;28;20211;-61
2021/08/23 13:07:36;;;;;;;5.78;3.20;;;33.90;57.80;;;;;;5017254;28;20041;-61
2021/08/23 13:10:04;;;;;;;13.40;4.25;;;33.70;57.80;;;;;;5048705;28;20730;-60
2021/08/23 13:12:30;;;;;;;10.85;3.83;;;34.10;58.00;;;;;;5017214;28;20135;-59
2021/08/23 13:14:56;;;;;;;10.48;4.38;;;34.00;57.40;;;;;;5050092;28;20040;-61
2021/08/23 13:17:22;;;;;;;5.68;4.00;;;34.00;57.30;;;;;;5049026;28;20087;-62
2021/08/23 13:19:48;;;;;;;6.05;3.38;;;34.20;57.40;;;;;;5051735;28;20033;-61
2021/08/23 13:22:14;;;;;;;6.88;3.88;;;33.80;57.50;;;;;;5033942;28;20036;-61
2021/08/23 13:24:41;;;;;;;6.28;4.78;;;33.40;57.00;;;;;;5045196;28;20370;-62